sensor_id;sensor_type;location;lat;lon;timestamp;temperature;humidity
29663;DHT22;16578;53.266;7.920;2023-09-18T00:02:28;21.90;79.60
29663;DHT22;16578;53.266;7.920;2023-09-18T00:04:56;21.90;79.70
29663;DHT22;16578;53.266;7.920;2023-09-18T00:07:22;22.00;79.80
29663;DHT22;16578;53.266;7.920;2023-09-18T00:09:47;22.00;79.70
29663;DHT22;16578;53.266;7.920;2023-09-18T00:12:14;22.00;79.70
29663;DHT22;16578;53.266;7.920;2023-09-18T00:14:39;21.90;79.70
29663;DHT22;16578;53.266;7.920;2023-09-18T00:17:07;21.90;79.60
29663;DHT22;16578;53.266;7.920;2023-09-18T00:19:32;21.90;79.60
29663;DHT22;16578;53.266;7.920;2023-09-18T00:21:59;21.80;79.60
29663;DHT22;16578;53.266;7.920;2023-09-18T00:24:27;21.80;79.50
29663;DHT22;16578;53.266;7.920;2023-09-18T00:26:52;21.80;79.50
29663;DHT22;16578;53.266;7.920;2023-09-18T00:29:18;21.80;79.50
29663;DHT22;16578;53.266;7.920;2023-09-18T00:31:44;21.80;79.50
29663;DHT22;16578;53.266;7.920;2023-09-18T00:34:09;21.80;79.50
29663;DHT22;16578;53.266;7.920;2023-09-18T00:36:35;21.80;79.50
29663;DHT22;16578;53.266;7.920;2023-09-18T00:39:00;21.80;79.50
29663;DHT22;16578;53.266;7.920;2023-09-18T00:41:26;21.80;79.50
29663;DHT22;16578;53.266;7.920;2023-09-18T00:43:51;21.70;79.40
29663;DHT22;16578;53.266;7.920;2023-09-18T00:46:18;21.70;79.40
29663;DHT22;16578;53.266;7.920;2023-09-18T00:48:45;21.70;79.40
29663;DHT22;16578;53.266;7.920;2023-09-18T00:51:12;21.70;79.50
29663;DHT22;16578;53.266;7.920;2023-09-18T00:53:38;21.70;79.50
29663;DHT22;16578;53.266;7.920;2023-09-18T00:56:04;21.70;79.70
29663;DHT22;16578;53.266;7.920;2023-09-18T00:58:30;21.70;80.60
29663;DHT22;16578;53.266;7.920;2023-09-18T01:00:56;21.70;79.70
29663;DHT22;16578;53.266;7.920;2023-09-18T01:03:22;21.70;79.70
29663;DHT22;16578;53.266;7.920;2023-09-18T01:05:48;21.70;79.70
29663;DHT22;16578;53.266;7.920;2023-09-18T01:08:13;21.60;79.60
29663;DHT22;16578;53.266;7.920;2023-09-18T01:10:59;21.60;79.60
29663;DHT22;16578;53.266;7.920;2023-09-18T01:13:45;21.70;80.40
29663;DHT22;16578;53.266;7.920;2023-09-18T01:16:27;21.60;79.50
29663;DHT22;16578;53.266;7.920;2023-09-18T01:18:54;21.60;79.50
29663;DHT22;16578;53.266;7.920;2023-09-18T01:21:20;21.60;79.40
29663;DHT22;16578;53.266;7.920;2023-09-18T01:23:46;21.60;79.40
29663;DHT22;16578;53.266;7.920;2023-09-18T01:26:12;21.50;79.40
29663;DHT22;16578;53.266;7.920;2023-09-18T01:28:37;21.50;79.50
29663;DHT22;16578;53.266;7.920;2023-09-18T01:31:03;21.50;79.50
29663;DHT22;16578;53.266;7.920;2023-09-18T01:33:29;21.50;79.50
29663;DHT22;16578;53.266;7.920;2023-09-18T01:35:56;21.50;79.50
29663;DHT22;16578;53.266;7.920;2023-09-18T01:38:23;21.40;79.60
29663;DHT22;16578;53.266;7.920;2023-09-18T01:40:50;21.40;79.80
29663;DHT22;16578;53.266;7.920;2023-09-18T01:43:18;21.40;80.10
29663;DHT22;16578;53.266;7.920;2023-09-18T01:45:44;21.40;80.40
29663;DHT22;16578;53.266;7.920;2023-09-18T01:48:10;21.40;80.70
29663;DHT22;16578;53.266;7.920;2023-09-18T01:50:36;21.40;80.90
29663;DHT22;16578;53.266;7.920;2023-09-18T01:53:03;21.40;81.10
29663;DHT22;16578;53.266;7.920;2023-09-18T01:55:28;21.40;81.20
29663;DHT22;16578;53.266;7.920;2023-09-18T01:57:55;21.40;81.40
29663;DHT22;16578;53.266;7.920;2023-09-18T02:00:21;21.40;81.60
29663;DHT22;16578;53.266;7.920;2023-09-18T02:02:46;21.40;81.70
29663;DHT22;16578;53.266;7.920;2023-09-18T02:05:12;21.50;81.80
29663;DHT22;16578;53.266;7.920;2023-09-18T02:07:38;21.50;81.80
29663;DHT22;16578;53.266;7.920;2023-09-18T02:10:04;21.50;81.80
29663;DHT22;16578;53.266;7.920;2023-09-18T02:12:29;21.50;81.80
29663;DHT22;16578;53.266;7.920;2023-09-18T02:14:55;21.60;81.90
29663;DHT22;16578;53.266;7.920;2023-09-18T02:17:23;21.50;82.00
29663;DHT22;16578;53.266;7.920;2023-09-18T02:19:49;21.60;82.20
29663;DHT22;16578;53.266;7.920;2023-09-18T02:22:15;21.60;82.20
29663;DHT22;16578;53.266;7.920;2023-09-18T02:24:40;21.60;82.30
29663;DHT22;16578;53.266;7.920;2023-09-18T02:27:06;21.60;82.30
29663;DHT22;16578;53.266;7.920;2023-09-18T02:29:32;21.60;82.30
29663;DHT22;16578;53.266;7.920;2023-09-18T02:31:57;21.70;82.40
29663;DHT22;16578;53.266;7.920;2023-09-18T02:34:23;21.70;82.30
29663;DHT22;16578;53.266;7.920;2023-09-18T02:36:49;21.70;82.40
29663;DHT22;16578;53.266;7.920;2023-09-18T02:39:14;21.70;82.30
29663;DHT22;16578;53.266;7.920;2023-09-18T02:41:40;21.70;82.40
29663;DHT22;16578;53.266;7.920;2023-09-18T02:44:05;21.70;82.40
29663;DHT22;16578;53.266;7.920;2023-09-18T02:46:31;21.70;82.40
29663;DHT22;16578;53.266;7.920;2023-09-18T02:48:56;21.70;82.50
29663;DHT22;16578;53.266;7.920;2023-09-18T02:51:22;21.70;82.50
29663;DHT22;16578;53.266;7.920;2023-09-18T02:53:47;21.70;82.50
29663;DHT22;16578;53.266;7.920;2023-09-18T02:56:13;21.70;82.50
29663;DHT22;16578;53.266;7.920;2023-09-18T02:58:39;21.70;82.50
29663;DHT22;16578;53.266;7.920;2023-09-18T03:01:07;21.70;82.60
29663;DHT22;16578;53.266;7.920;2023-09-18T03:03:33;21.80;82.60
29663;DHT22;16578;53.266;7.920;2023-09-18T03:06:03;21.80;82.60
29663;DHT22;16578;53.266;7.920;2023-09-18T03:08:29;21.80;82.60
29663;DHT22;16578;53.266;7.920;2023-09-18T03:10:55;21.80;82.60
29663;DHT22;16578;53.266;7.920;2023-09-18T03:13:21;21.80;82.60
29663;DHT22;16578;53.266;7.920;2023-09-18T03:15:47;21.80;82.60
29663;DHT22;16578;53.266;7.920;2023-09-18T03:18:13;21.80;82.60
29663;DHT22;16578;53.266;7.920;2023-09-18T03:20:38;21.80;82.60
29663;DHT22;16578;53.266;7.920;2023-09-18T03:23:04;21.80;82.60
29663;DHT22;16578;53.266;7.920;2023-09-18T03:25:29;21.90;82.60
29663;DHT22;16578;53.266;7.920;2023-09-18T03:27:57;21.90;82.60
29663;DHT22;16578;53.266;7.920;2023-09-18T03:30:23;21.80;82.60
29663;DHT22;16578;53.266;7.920;2023-09-18T03:32:50;21.90;82.70
29663;DHT22;16578;53.266;7.920;2023-09-18T03:35:16;21.90;82.60
29663;DHT22;16578;53.266;7.920;2023-09-18T03:37:49;21.90;82.70
29663;DHT22;16578;53.266;7.920;2023-09-18T03:40:16;21.90;82.70
29663;DHT22;16578;53.266;7.920;2023-09-18T03:42:41;21.90;82.70
29663;DHT22;16578;53.266;7.920;2023-09-18T03:45:08;21.90;82.70
29663;DHT22;16578;53.266;7.920;2023-09-18T03:47:35;21.90;82.60
29663;DHT22;16578;53.266;7.920;2023-09-18T03:50:07;21.90;82.60
29663;DHT22;16578;53.266;7.920;2023-09-18T03:52:33;21.90;82.60
29663;DHT22;16578;53.266;7.920;2023-09-18T03:54:59;21.90;82.60
29663;DHT22;16578;53.266;7.920;2023-09-18T03:57:24;21.90;82.60
29663;DHT22;16578;53.266;7.920;2023-09-18T03:59:50;21.90;82.50
29663;DHT22;16578;53.266;7.920;2023-09-18T04:02:15;21.90;82.50
29663;DHT22;16578;53.266;7.920;2023-09-18T04:04:41;21.90;82.60
29663;DHT22;16578;53.266;7.920;2023-09-18T04:07:07;21.80;82.50
29663;DHT22;16578;53.266;7.920;2023-09-18T04:09:33;21.90;82.50
29663;DHT22;16578;53.266;7.920;2023-09-18T04:12:02;21.80;82.50
29663;DHT22;16578;53.266;7.920;2023-09-18T04:14:28;21.80;82.50
29663;DHT22;16578;53.266;7.920;2023-09-18T04:16:53;21.90;82.60
29663;DHT22;16578;53.266;7.920;2023-09-18T04:19:19;21.80;82.60
29663;DHT22;16578;53.266;7.920;2023-09-18T04:21:44;21.80;82.50
29663;DHT22;16578;53.266;7.920;2023-09-18T04:24:10;21.80;82.60
29663;DHT22;16578;53.266;7.920;2023-09-18T04:26:35;21.80;82.60
29663;DHT22;16578;53.266;7.920;2023-09-18T04:29:03;21.80;82.60
29663;DHT22;16578;53.266;7.920;2023-09-18T04:31:28;21.80;82.60
29663;DHT22;16578;53.266;7.920;2023-09-18T04:33:55;21.80;82.70
29663;DHT22;16578;53.266;7.920;2023-09-18T04:36:20;21.80;82.80
29663;DHT22;16578;53.266;7.920;2023-09-18T04:38:46;21.80;82.80
29663;DHT22;16578;53.266;7.920;2023-09-18T04:41:11;21.80;82.80
29663;DHT22;16578;53.266;7.920;2023-09-18T04:43:37;21.80;82.70
29663;DHT22;16578;53.266;7.920;2023-09-18T04:46:06;21.70;82.70
29663;DHT22;16578;53.266;7.920;2023-09-18T04:48:32;21.80;82.80
29663;DHT22;16578;53.266;7.920;2023-09-18T04:50:59;21.70;82.70
29663;DHT22;16578;53.266;7.920;2023-09-18T04:53:25;21.70;82.70
29663;DHT22;16578;53.266;7.920;2023-09-18T04:55:51;21.70;82.70
29663;DHT22;16578;53.266;7.920;2023-09-18T04:58:17;21.70;82.70
29663;DHT22;16578;53.266;7.920;2023-09-18T05:00:42;21.70;82.70
29663;DHT22;16578;53.266;7.920;2023-09-18T05:03:09;21.70;82.70
29663;DHT22;16578;53.266;7.920;2023-09-18T05:05:36;21.70;82.70
29663;DHT22;16578;53.266;7.920;2023-09-18T05:08:03;21.70;82.70
29663;DHT22;16578;53.266;7.920;2023-09-18T05:10:30;21.70;82.60
29663;DHT22;16578;53.266;7.920;2023-09-18T05:12:56;21.60;83.00
29663;DHT22;16578;53.266;7.920;2023-09-18T05:15:24;21.70;82.70
29663;DHT22;16578;53.266;7.920;2023-09-18T05:17:55;21.70;82.70
29663;DHT22;16578;53.266;7.920;2023-09-18T05:20:23;21.70;82.70
29663;DHT22;16578;53.266;7.920;2023-09-18T05:22:50;21.70;82.70
29663;DHT22;16578;53.266;7.920;2023-09-18T05:25:18;21.70;82.70
29663;DHT22;16578;53.266;7.920;2023-09-18T05:27:44;21.70;82.70
29663;DHT22;16578;53.266;7.920;2023-09-18T05:32:37;21.70;82.80
29663;DHT22;16578;53.266;7.920;2023-09-18T05:35:03;21.70;82.80
29663;DHT22;16578;53.266;7.920;2023-09-18T05:37:32;21.70;82.80
29663;DHT22;16578;53.266;7.920;2023-09-18T05:39:57;21.70;82.80
29663;DHT22;16578;53.266;7.920;2023-09-18T05:42:23;21.70;82.90
29663;DHT22;16578;53.266;7.920;2023-09-18T05:44:48;21.70;82.90
29663;DHT22;16578;53.266;7.920;2023-09-18T05:47:14;21.70;82.90
29663;DHT22;16578;53.266;7.920;2023-09-18T05:49:39;21.70;82.90
29663;DHT22;16578;53.266;7.920;2023-09-18T05:52:06;21.70;82.90
29663;DHT22;16578;53.266;7.920;2023-09-18T05:54:31;21.70;82.90
29663;DHT22;16578;53.266;7.920;2023-09-18T05:56:57;21.70;82.90
29663;DHT22;16578;53.266;7.920;2023-09-18T05:59:22;21.80;83.00
29663;DHT22;16578;53.266;7.920;2023-09-18T06:01:48;21.80;83.10
29663;DHT22;16578;53.266;7.920;2023-09-18T06:04:14;21.80;83.00
29663;DHT22;16578;53.266;7.920;2023-09-18T06:06:40;21.80;82.90
29663;DHT22;16578;53.266;7.920;2023-09-18T06:09:05;21.80;82.90
29663;DHT22;16578;53.266;7.920;2023-09-18T06:11:31;21.90;82.90
29663;DHT22;16578;53.266;7.920;2023-09-18T06:13:57;21.90;82.80
29663;DHT22;16578;53.266;7.920;2023-09-18T06:16:22;21.90;82.80
29663;DHT22;16578;53.266;7.920;2023-09-18T06:18:48;21.90;82.80
29663;DHT22;16578;53.266;7.920;2023-09-18T06:21:13;21.90;82.90
29663;DHT22;16578;53.266;7.920;2023-09-18T06:23:39;22.00;82.80
29663;DHT22;16578;53.266;7.920;2023-09-18T06:26:04;22.00;82.80
29663;DHT22;16578;53.266;7.920;2023-09-18T06:28:30;22.00;82.70
29663;DHT22;16578;53.266;7.920;2023-09-18T06:30:56;22.00;82.60
29663;DHT22;16578;53.266;7.920;2023-09-18T06:33:22;22.00;82.60
29663;DHT22;16578;53.266;7.920;2023-09-18T06:35:48;22.10;82.50
29663;DHT22;16578;53.266;7.920;2023-09-18T06:38:13;22.10;82.50
29663;DHT22;16578;53.266;7.920;2023-09-18T06:40:40;22.10;82.60
29663;DHT22;16578;53.266;7.920;2023-09-18T06:43:06;22.10;82.50
29663;DHT22;16578;53.266;7.920;2023-09-18T06:45:32;22.10;82.50
29663;DHT22;16578;53.266;7.920;2023-09-18T06:47:58;22.20;82.60
29663;DHT22;16578;53.266;7.920;2023-09-18T06:50:25;22.20;82.60
29663;DHT22;16578;53.266;7.920;2023-09-18T06:52:51;22.20;82.60
29663;DHT22;16578;53.266;7.920;2023-09-18T06:55:16;22.30;82.60
29663;DHT22;16578;53.266;7.920;2023-09-18T06:57:42;22.20;82.40
29663;DHT22;16578;53.266;7.920;2023-09-18T07:00:08;22.30;82.50
29663;DHT22;16578;53.266;7.920;2023-09-18T07:02:34;22.30;82.40
29663;DHT22;16578;53.266;7.920;2023-09-18T07:04:59;22.30;82.30
29663;DHT22;16578;53.266;7.920;2023-09-18T07:07:25;22.30;82.30
29663;DHT22;16578;53.266;7.920;2023-09-18T07:09:51;22.40;82.40
29663;DHT22;16578;53.266;7.920;2023-09-18T07:12:17;22.40;82.30
29663;DHT22;16578;53.266;7.920;2023-09-18T07:14:46;22.40;82.20
29663;DHT22;16578;53.266;7.920;2023-09-18T07:17:12;22.40;82.20
29663;DHT22;16578;53.266;7.920;2023-09-18T07:19:38;22.40;82.20
29663;DHT22;16578;53.266;7.920;2023-09-18T07:22:03;22.40;82.20
29663;DHT22;16578;53.266;7.920;2023-09-18T07:24:29;22.40;82.20
29663;DHT22;16578;53.266;7.920;2023-09-18T07:26:54;22.40;82.30
29663;DHT22;16578;53.266;7.920;2023-09-18T07:29:20;22.50;82.30
29663;DHT22;16578;53.266;7.920;2023-09-18T07:31:46;22.50;82.30
29663;DHT22;16578;53.266;7.920;2023-09-18T07:34:13;22.50;82.30
29663;DHT22;16578;53.266;7.920;2023-09-18T07:36:39;22.60;82.30
29663;DHT22;16578;53.266;7.920;2023-09-18T07:39:05;22.60;82.30
29663;DHT22;16578;53.266;7.920;2023-09-18T07:41:31;22.60;83.20
29663;DHT22;16578;53.266;7.920;2023-09-18T07:43:57;22.60;82.20
29663;DHT22;16578;53.266;7.920;2023-09-18T07:46:24;22.60;82.20
29663;DHT22;16578;53.266;7.920;2023-09-18T07:48:50;22.60;82.10
29663;DHT22;16578;53.266;7.920;2023-09-18T07:51:16;22.70;82.20
29663;DHT22;16578;53.266;7.920;2023-09-18T07:53:42;22.70;82.10
29663;DHT22;16578;53.266;7.920;2023-09-18T07:56:08;22.70;82.10
29663;DHT22;16578;53.266;7.920;2023-09-18T07:58:34;22.70;82.20
29663;DHT22;16578;53.266;7.920;2023-09-18T08:01:04;22.70;82.20
29663;DHT22;16578;53.266;7.920;2023-09-18T08:03:30;22.70;82.20
29663;DHT22;16578;53.266;7.920;2023-09-18T08:05:56;22.80;82.30
29663;DHT22;16578;53.266;7.920;2023-09-18T08:08:22;22.70;82.30
29663;DHT22;16578;53.266;7.920;2023-09-18T08:10:49;22.80;82.30
29663;DHT22;16578;53.266;7.920;2023-09-18T08:13:15;22.80;82.30
29663;DHT22;16578;53.266;7.920;2023-09-18T08:15:41;22.80;82.30
29663;DHT22;16578;53.266;7.920;2023-09-18T08:18:07;22.90;82.40
29663;DHT22;16578;53.266;7.920;2023-09-18T08:20:32;22.90;82.40
29663;DHT22;16578;53.266;7.920;2023-09-18T08:22:58;22.90;82.40
29663;DHT22;16578;53.266;7.920;2023-09-18T08:25:26;22.90;82.30
29663;DHT22;16578;53.266;7.920;2023-09-18T08:27:52;22.90;82.40
29663;DHT22;16578;53.266;7.920;2023-09-18T08:30:18;22.90;82.30
29663;DHT22;16578;53.266;7.920;2023-09-18T08:32:46;22.90;82.30
29663;DHT22;16578;53.266;7.920;2023-09-18T08:35:13;22.90;82.30
29663;DHT22;16578;53.266;7.920;2023-09-18T08:37:40;22.90;82.30
29663;DHT22;16578;53.266;7.920;2023-09-18T08:40:07;22.90;82.30
29663;DHT22;16578;53.266;7.920;2023-09-18T08:42:36;22.90;82.80
29663;DHT22;16578;53.266;7.920;2023-09-18T08:45:09;22.90;82.40
29663;DHT22;16578;53.266;7.920;2023-09-18T08:47:38;22.90;82.40
29663;DHT22;16578;53.266;7.920;2023-09-18T08:50:06;22.90;82.40
29663;DHT22;16578;53.266;7.920;2023-09-18T08:52:33;22.90;82.40
29663;DHT22;16578;53.266;7.920;2023-09-18T08:54:59;22.90;82.60
29663;DHT22;16578;53.266;7.920;2023-09-18T08:57:27;22.90;82.60
29663;DHT22;16578;53.266;7.920;2023-09-18T08:59:54;22.90;82.80
29663;DHT22;16578;53.266;7.920;2023-09-18T09:02:20;22.90;83.10
29663;DHT22;16578;53.266;7.920;2023-09-18T09:04:46;22.90;83.20
29663;DHT22;16578;53.266;7.920;2023-09-18T09:07:12;22.90;83.40
29663;DHT22;16578;53.266;7.920;2023-09-18T09:09:37;22.90;83.50
29663;DHT22;16578;53.266;7.920;2023-09-18T09:12:04;23.00;83.60
29663;DHT22;16578;53.266;7.920;2023-09-18T09:14:29;23.10;83.60
29663;DHT22;16578;53.266;7.920;2023-09-18T09:16:56;23.10;83.70
29663;DHT22;16578;53.266;7.920;2023-09-18T09:19:30;23.10;83.70
29663;DHT22;16578;53.266;7.920;2023-09-18T09:21:56;23.20;83.90
29663;DHT22;16578;53.266;7.920;2023-09-18T09:24:37;23.20;83.90
29663;DHT22;16578;53.266;7.920;2023-09-18T09:27:03;23.30;84.10
29663;DHT22;16578;53.266;7.920;2023-09-18T09:29:29;23.30;83.90
29663;DHT22;16578;53.266;7.920;2023-09-18T09:31:55;23.30;83.80
29663;DHT22;16578;53.266;7.920;2023-09-18T09:34:25;23.30;83.60
29663;DHT22;16578;53.266;7.920;2023-09-18T09:36:55;23.40;83.50
29663;DHT22;16578;53.266;7.920;2023-09-18T09:39:21;23.40;83.50
29663;DHT22;16578;53.266;7.920;2023-09-18T09:41:50;23.40;83.30
29663;DHT22;16578;53.266;7.920;2023-09-18T09:44:16;23.30;83.60
29663;DHT22;16578;53.266;7.920;2023-09-18T09:46:48;23.40;83.30
29663;DHT22;16578;53.266;7.920;2023-09-18T09:49:14;23.50;83.20
29663;DHT22;16578;53.266;7.920;2023-09-18T09:51:41;23.50;83.20
29663;DHT22;16578;53.266;7.920;2023-09-18T09:54:07;23.50;83.10
29663;DHT22;16578;53.266;7.920;2023-09-18T09:59:11;23.50;83.20
29663;DHT22;16578;53.266;7.920;2023-09-18T10:01:37;23.50;83.20
29663;DHT22;16578;53.266;7.920;2023-09-18T10:04:05;23.50;83.20
29663;DHT22;16578;53.266;7.920;2023-09-18T10:06:34;23.50;83.20
29663;DHT22;16578;53.266;7.920;2023-09-18T10:09:04;23.50;83.20
29663;DHT22;16578;53.266;7.920;2023-09-18T10:11:34;23.50;83.20
29663;DHT22;16578;53.266;7.920;2023-09-18T10:14:14;23.50;83.00
29663;DHT22;16578;53.266;7.920;2023-09-18T10:16:45;23.60;83.00
29663;DHT22;16578;53.266;7.920;2023-09-18T10:19:28;23.60;83.00
29663;DHT22;16578;53.266;7.920;2023-09-18T10:24:54;23.60;82.90
29663;DHT22;16578;53.266;7.920;2023-09-18T10:27:26;23.60;82.90
29663;DHT22;16578;53.266;7.920;2023-09-18T10:29:52;23.60;83.00
29663;DHT22;16578;53.266;7.920;2023-09-18T10:32:20;23.60;82.90
29663;DHT22;16578;53.266;7.920;2023-09-18T10:34:47;23.60;82.90
29663;DHT22;16578;53.266;7.920;2023-09-18T10:37:14;23.60;82.80
29663;DHT22;16578;53.266;7.920;2023-09-18T10:39:41;23.60;82.90
29663;DHT22;16578;53.266;7.920;2023-09-18T10:42:09;23.60;82.80
29663;DHT22;16578;53.266;7.920;2023-09-18T10:44:35;23.60;82.80
29663;DHT22;16578;53.266;7.920;2023-09-18T10:47:03;23.60;82.90
29663;DHT22;16578;53.266;7.920;2023-09-18T10:49:31;23.60;82.90
29663;DHT22;16578;53.266;7.920;2023-09-18T10:51:57;23.70;83.20
29663;DHT22;16578;53.266;7.920;2023-09-18T10:54:25;23.70;83.40
29663;DHT22;16578;53.266;7.920;2023-09-18T10:56:51;23.70;83.40
29663;DHT22;16578;53.266;7.920;2023-09-18T10:59:18;23.70;83.40
29663;DHT22;16578;53.266;7.920;2023-09-18T11:01:44;23.80;83.40
29663;DHT22;16578;53.266;7.920;2023-09-18T11:04:11;23.80;83.40
29663;DHT22;16578;53.266;7.920;2023-09-18T11:11:52;24.00;83.40
29663;DHT22;16578;53.266;7.920;2023-09-18T11:14:22;24.00;83.20
29663;DHT22;16578;53.266;7.920;2023-09-18T11:16:49;24.10;83.10
29663;DHT22;16578;53.266;7.920;2023-09-18T11:19:17;24.10;82.90
29663;DHT22;16578;53.266;7.920;2023-09-18T11:21:45;24.10;83.00
29663;DHT22;16578;53.266;7.920;2023-09-18T11:24:21;24.10;82.90
29663;DHT22;16578;53.266;7.920;2023-09-18T11:26:49;24.20;82.70
29663;DHT22;16578;53.266;7.920;2023-09-18T11:29:21;24.20;82.60
29663;DHT22;16578;53.266;7.920;2023-09-18T11:31:55;24.30;82.30
29663;DHT22;16578;53.266;7.920;2023-09-18T11:34:26;24.30;82.00
29663;DHT22;16578;53.266;7.920;2023-09-18T11:36:54;24.30;81.90
29663;DHT22;16578;53.266;7.920;2023-09-18T11:39:36;24.30;81.70
29663;DHT22;16578;53.266;7.920;2023-09-18T11:42:07;24.40;81.40
29663;DHT22;16578;53.266;7.920;2023-09-18T11:44:34;24.40;81.40
29663;DHT22;16578;53.266;7.920;2023-09-18T11:47:01;24.30;81.50
29663;DHT22;16578;53.266;7.920;2023-09-18T11:49:29;24.40;81.60
29663;DHT22;16578;53.266;7.920;2023-09-18T11:51:59;24.40;81.70
29663;DHT22;16578;53.266;7.920;2023-09-18T11:54:26;24.40;81.40
29663;DHT22;16578;53.266;7.920;2023-09-18T11:56:52;24.50;81.30
29663;DHT22;16578;53.266;7.920;2023-09-18T11:59:17;24.40;81.00
29663;DHT22;16578;53.266;7.920;2023-09-18T12:01:53;24.50;80.70
29663;DHT22;16578;53.266;7.920;2023-09-18T12:04:27;24.50;80.30
29663;DHT22;16578;53.266;7.920;2023-09-18T12:06:53;24.50;80.10
29663;DHT22;16578;53.266;7.920;2023-09-18T12:09:18;24.50;80.20
29663;DHT22;16578;53.266;7.920;2023-09-18T12:11:45;24.50;80.30
29663;DHT22;16578;53.266;7.920;2023-09-18T12:14:11;24.50;80.30
29663;DHT22;16578;53.266;7.920;2023-09-18T12:16:38;24.50;80.30
29663;DHT22;16578;53.266;7.920;2023-09-18T12:19:06;24.60;80.40
29663;DHT22;16578;53.266;7.920;2023-09-18T12:21:33;24.60;80.80
29663;DHT22;16578;53.266;7.920;2023-09-18T12:24:05;24.70;80.50
29663;DHT22;16578;53.266;7.920;2023-09-18T12:26:31;24.70;80.30
29663;DHT22;16578;53.266;7.920;2023-09-18T12:28:56;24.70;80.00
29663;DHT22;16578;53.266;7.920;2023-09-18T12:31:25;24.80;79.90
29663;DHT22;16578;53.266;7.920;2023-09-18T12:33:51;24.80;79.70
29663;DHT22;16578;53.266;7.920;2023-09-18T12:36:37;24.80;79.40
29663;DHT22;16578;53.266;7.920;2023-09-18T12:39:35;24.80;79.20
29663;DHT22;16578;53.266;7.920;2023-09-18T12:42:01;24.90;78.80
29663;DHT22;16578;53.266;7.920;2023-09-18T12:44:27;24.80;78.80
29663;DHT22;16578;53.266;7.920;2023-09-18T12:46:59;24.90;78.60
29663;DHT22;16578;53.266;7.920;2023-09-18T12:49:40;24.90;78.20
29663;DHT22;16578;53.266;7.920;2023-09-18T12:52:06;24.90;77.90
29663;DHT22;16578;53.266;7.920;2023-09-18T12:55:34;24.90;78.10
29663;DHT22;16578;53.266;7.920;2023-09-18T12:57:58;24.90;77.60
29663;DHT22;16578;53.266;7.920;2023-09-18T13:00:24;24.90;78.00
29663;DHT22;16578;53.266;7.920;2023-09-18T13:02:52;24.90;77.70
29663;DHT22;16578;53.266;7.920;2023-09-18T13:05:24;24.90;77.50
29663;DHT22;16578;53.266;7.920;2023-09-18T13:07:53;25.00;77.20
29663;DHT22;16578;53.266;7.920;2023-09-18T13:10:19;25.00;77.20
29663;DHT22;16578;53.266;7.920;2023-09-18T13:12:50;25.00;76.90
29663;DHT22;16578;53.266;7.920;2023-09-18T13:15:33;25.00;76.70
29663;DHT22;16578;53.266;7.920;2023-09-18T13:18:01;25.00;76.40
29663;DHT22;16578;53.266;7.920;2023-09-18T13:20:34;25.00;76.40
29663;DHT22;16578;53.266;7.920;2023-09-18T13:23:00;25.00;76.40
29663;DHT22;16578;53.266;7.920;2023-09-18T13:25:29;25.00;76.40
29663;DHT22;16578;53.266;7.920;2023-09-18T13:27:55;25.00;76.40
29663;DHT22;16578;53.266;7.920;2023-09-18T13:30:21;25.00;76.70
29663;DHT22;16578;53.266;7.920;2023-09-18T13:32:48;25.00;76.70
29663;DHT22;16578;53.266;7.920;2023-09-18T13:35:17;25.00;77.20
29663;DHT22;16578;53.266;7.920;2023-09-18T13:37:43;25.00;76.20
29663;DHT22;16578;53.266;7.920;2023-09-18T13:40:10;25.00;76.00
29663;DHT22;16578;53.266;7.920;2023-09-18T13:42:37;25.00;76.10
29663;DHT22;16578;53.266;7.920;2023-09-18T13:45:03;25.10;75.90
29663;DHT22;16578;53.266;7.920;2023-09-18T13:47:33;25.00;75.70
29663;DHT22;16578;53.266;7.920;2023-09-18T13:50:00;25.10;75.60
29663;DHT22;16578;53.266;7.920;2023-09-18T13:52:26;25.10;75.50
29663;DHT22;16578;53.266;7.920;2023-09-18T13:54:52;25.10;75.30
29663;DHT22;16578;53.266;7.920;2023-09-18T13:57:18;25.10;75.20
29663;DHT22;16578;53.266;7.920;2023-09-18T13:59:45;25.10;75.10
29663;DHT22;16578;53.266;7.920;2023-09-18T14:02:12;25.10;75.10
29663;DHT22;16578;53.266;7.920;2023-09-18T14:04:37;25.10;74.90
29663;DHT22;16578;53.266;7.920;2023-09-18T14:07:07;25.10;74.70
29663;DHT22;16578;53.266;7.920;2023-09-18T14:09:34;25.10;74.70
29663;DHT22;16578;53.266;7.920;2023-09-18T14:11:59;25.00;74.80
29663;DHT22;16578;53.266;7.920;2023-09-18T14:14:25;25.10;74.70
29663;DHT22;16578;53.266;7.920;2023-09-18T14:16:51;25.10;74.70
29663;DHT22;16578;53.266;7.920;2023-09-18T14:19:17;25.10;74.70
29663;DHT22;16578;53.266;7.920;2023-09-18T14:21:43;25.10;74.40
29663;DHT22;16578;53.266;7.920;2023-09-18T14:24:09;25.10;74.20
29663;DHT22;16578;53.266;7.920;2023-09-18T14:26:35;25.10;74.10
29663;DHT22;16578;53.266;7.920;2023-09-18T14:29:07;25.10;73.80
29663;DHT22;16578;53.266;7.920;2023-09-18T14:31:33;25.10;74.50
29663;DHT22;16578;53.266;7.920;2023-09-18T14:33:59;25.10;73.60
29663;DHT22;16578;53.266;7.920;2023-09-18T14:36:25;25.20;73.60
29663;DHT22;16578;53.266;7.920;2023-09-18T14:38:51;25.10;73.50
29663;DHT22;16578;53.266;7.920;2023-09-18T14:41:17;25.10;73.50
29663;DHT22;16578;53.266;7.920;2023-09-18T14:43:44;25.20;73.60
29663;DHT22;16578;53.266;7.920;2023-09-18T14:46:10;25.10;73.40
29663;DHT22;16578;53.266;7.920;2023-09-18T14:48:35;25.20;73.20
29663;DHT22;16578;53.266;7.920;2023-09-18T14:51:01;25.10;73.10
29663;DHT22;16578;53.266;7.920;2023-09-18T14:53:28;25.10;72.90
29663;DHT22;16578;53.266;7.920;2023-09-18T14:55:53;25.10;72.90
29663;DHT22;16578;53.266;7.920;2023-09-18T14:58:21;25.10;72.70
29663;DHT22;16578;53.266;7.920;2023-09-18T15:00:49;25.10;72.60
29663;DHT22;16578;53.266;7.920;2023-09-18T15:03:15;25.00;72.60
29663;DHT22;16578;53.266;7.920;2023-09-18T15:05:40;25.00;72.50
29663;DHT22;16578;53.266;7.920;2023-09-18T15:08:06;25.10;72.60
29663;DHT22;16578;53.266;7.920;2023-09-18T15:10:32;25.00;72.40
29663;DHT22;16578;53.266;7.920;2023-09-18T15:12:58;25.00;72.20
29663;DHT22;16578;53.266;7.920;2023-09-18T15:15:23;25.00;72.00
29663;DHT22;16578;53.266;7.920;2023-09-18T15:17:50;25.00;72.10
29663;DHT22;16578;53.266;7.920;2023-09-18T15:20:17;25.00;72.00
29663;DHT22;16578;53.266;7.920;2023-09-18T15:22:44;25.00;72.10
29663;DHT22;16578;53.266;7.920;2023-09-18T15:25:09;25.00;72.00
29663;DHT22;16578;53.266;7.920;2023-09-18T15:27:36;25.00;72.00
29663;DHT22;16578;53.266;7.920;2023-09-18T15:30:05;25.10;71.80
29663;DHT22;16578;53.266;7.920;2023-09-18T15:32:49;25.00;71.50
29663;DHT22;16578;53.266;7.920;2023-09-18T15:35:16;25.10;71.40
29663;DHT22;16578;53.266;7.920;2023-09-18T15:37:42;25.10;71.80
29663;DHT22;16578;53.266;7.920;2023-09-18T15:40:26;25.10;71.70
29663;DHT22;16578;53.266;7.920;2023-09-18T15:42:52;25.10;71.70
29663;DHT22;16578;53.266;7.920;2023-09-18T15:45:18;25.10;71.70